Time;durP1;ratioP1;P1;durP2;ratioP2;P2;SDS_P1;SDS_P2;PMS_P1;PMS_P2;Temp;Humidity;BMP_temperature;BMP_pressure;BME280_temperature;BME280_humidity;BME280_pressure;Samples;Min_cycle;Max_cycle;Signal;HPM_P1;HPM_P2
2023/01/28 00:00:55;;;;;;;16.17;14.75;;;;;;;5.59;67.73;102812.66;5075409;28;20083;-77
2023/01/28 00:03:20;;;;;;;15.00;14.10;;;;;;;5.58;67.96;102811.81;5075378;28;20094;-77
2023/01/28 00:05:46;;;;;;;17.50;16.10;;;;;;;5.58;68.02;102819.88;5075348;28;20039;-76
2023/01/28 00:08:13;;;;;;;16.73;15.43;;;;;;;5.58;68.25;102817.19;5075621;28;20036;-77
2023/01/28 00:10:39;;;;;;;20.20;18.25;;;;;;;5.58;67.95;102816.34;5075327;28;20079;-76
2023/01/28 00:13:05;;;;;;;15.60;14.50;;;;;;;5.58;67.85;102829.75;5076096;28;20063;-76
2023/01/28 00:15:31;;;;;;;18.15;16.67;;;;;;;5.58;68.03;102827.91;5075170;28;20063;-76
2023/01/28 00:17:56;;;;;;;17.83;16.40;;;;;;;5.59;67.81;102836.78;5074854;28;20064;-76
2023/01/28 00:20:22;;;;;;;16.33;15.20;;;;;;;5.58;67.80;102830.59;5074944;28;20047;-76
2023/01/28 00:22:48;;;;;;;16.77;15.32;;;;;;;5.56;67.96;102832.59;5075313;28;20040;-76
2023/01/28 00:25:14;;;;;;;16.80;15.40;;;;;;;5.56;67.74;102832.59;5074011;28;20392;-76
2023/01/28 00:27:39;;;;;;;16.65;15.32;;;;;;;5.56;67.53;102835.25;5074776;28;20120;-76
2023/01/28 00:30:06;;;;;;;17.70;16.48;;;;;;;5.55;67.87;102838.97;5075045;28;20063;-77
2023/01/28 00:32:31;;;;;;;19.20;17.58;;;;;;;5.55;67.77;102841.63;5074588;28;20029;-77
2023/01/28 00:34:56;;;;;;;16.73;15.52;;;;;;;5.55;67.77;102841.63;5073699;28;20033;-76
2023/01/28 00:37:22;;;;;;;17.45;16.00;;;;;;;5.55;67.98;102844.31;5074724;28;20064;-76
2023/01/28 00:39:48;;;;;;;17.27;15.88;;;;;;;5.55;67.96;102840.81;5074816;28;20033;-77
2023/01/28 00:42:13;;;;;;;17.55;15.80;;;;;;;5.55;67.79;102840.81;5074503;28;20035;-76
2023/01/28 00:44:39;;;;;;;17.23;15.82;;;;;;;5.54;67.73;102842.63;5073523;28;20387;-77
2023/01/28 00:47:04;;;;;;;16.45;15.30;;;;;;;5.54;67.78;102839.94;5075013;28;20029;-76
2023/01/28 00:49:30;;;;;;;17.33;16.05;;;;;;;5.54;67.89;102841.78;5074734;28;20107;-77
2023/01/28 00:51:55;;;;;;;16.20;14.95;;;;;;;5.54;67.38;102839.09;5073824;28;20040;-76
2023/01/28 00:54:20;;;;;;;15.73;14.57;;;;;;;5.54;67.57;102839.09;5074655;28;20040;-76
2023/01/28 00:56:46;;;;;;;17.25;15.68;;;;;;;5.54;67.74;102839.09;5074825;28;20466;-77
2023/01/28 00:59:12;;;;;;;15.68;14.65;;;;;;;5.53;67.70;102849.00;5074783;28;20043;-77
2023/01/28 01:01:37;;;;;;;17.70;16.40;;;;;;;5.52;67.97;102850.00;5074678;28;20545;-76
2023/01/28 01:04:03;;;;;;;15.07;13.85;;;;;;;5.52;67.65;102854.50;5074987;28;20033;-76
2023/01/28 01:06:34;;;;;;;16.25;14.95;;;;;;;5.51;67.39;102853.66;5073886;28;20029;-76
2023/01/28 01:09:01;;;;;;;17.02;15.77;;;;;;;5.51;67.66;102852.84;5074575;28;20078;-76
2023/01/28 01:11:26;;;;;;;17.35;15.88;;;;;;;5.51;67.51;102850.16;5073215;28;20124;-76
2023/01/28 01:14:04;;;;;;;15.10;14.20;;;;;;;5.51;67.72;102850.97;5072798;28;20434;-76
2023/01/28 01:16:35;;;;;;;17.55;16.20;;;;;;;5.51;67.81;102850.97;5073437;28;20034;-76
2023/01/28 01:19:00;;;;;;;14.98;13.57;;;;;;;5.51;67.66;102853.66;5074879;28;20132;-77
2023/01/28 01:21:28;;;;;;;15.07;13.32;;;;;;;5.49;67.57;102849.47;5073120;28;20514;-77
2023/01/28 01:23:54;;;;;;;15.38;14.18;;;;;;;5.50;67.66;102848.47;5074750;28;20028;-77
2023/01/28 01:26:19;;;;;;;15.27;14.18;;;;;;;5.50;67.66;102848.47;5074584;28;20043;-76
2023/01/28 01:28:45;;;;;;;19.63;17.88;;;;;;;5.49;67.57;102839.56;5056186;28;20476;-77
2023/01/28 01:31:16;;;;;;;16.25;14.82;;;;;;;5.49;67.69;102836.06;5074184;28;20464;-77
2023/01/28 01:33:42;;;;;;;17.33;15.98;;;;;;;5.49;67.69;102838.75;5074212;28;20069;-77
2023/01/28 01:36:09;;;;;;;15.63;14.38;;;;;;;5.47;68.12;102840.72;5056254;28;20029;-77
2023/01/28 01:38:35;;;;;;;17.25;15.88;;;;;;;5.47;67.95;102828.19;5074172;28;20157;-76
2023/01/28 01:41:02;;;;;;;17.20;15.80;;;;;;;5.46;68.15;102842.56;5074006;28;20078;-77
2023/01/28 01:43:56;;;;;;;18.35;16.90;;;;;;;5.47;67.52;102838.03;5073668;28;20032;-77
2023/01/28 01:46:29;;;;;;;14.35;13.43;;;;;;;5.45;67.88;102840.91;5074294;28;20103;-76
2023/01/28 01:48:56;;;;;;;15.35;14.25;;;;;;;5.45;67.60;102848.09;5074403;28;20027;-76
2023/01/28 01:51:28;;;;;;;15.00;14.00;;;;;;;5.45;67.83;102850.78;5073582;28;20460;-77
2023/01/28 01:53:56;;;;;;;17.13;15.68;;;;;;;5.44;67.70;102847.25;5073736;28;20340;-77
2023/01/28 01:56:27;;;;;;;17.00;15.73;;;;;;;5.44;67.60;102855.28;5072477;28;20527;-77
2023/01/28 01:58:55;;;;;;;19.58;17.90;;;;;;;5.43;67.83;102854.44;5073642;28;20492;-77
2023/01/28 02:01:23;;;;;;;14.37;13.37;;;;;;;5.43;67.82;102845.56;5072737;28;20028;-77
2023/01/28 02:04:10;;;;;;;15.82;14.73;;;;;;;5.43;68.03;102849.09;5073566;28;20107;-77
2023/01/28 02:06:37;;;;;;;15.07;14.18;;;;;;;5.42;67.91;102857.31;5073758;28;20024;-76
2023/01/28 02:09:06;;;;;;;16.52;15.32;;;;;;;5.42;67.55;102849.25;5073263;28;20048;-77
2023/01/28 02:11:33;;;;;;;14.55;13.55;;;;;;;5.41;67.65;102851.06;5073846;28;20119;-77
2023/01/28 02:14:03;;;;;;;16.17;14.95;;;;;;;5.41;67.86;102856.44;5072121;28;20039;-77
2023/01/28 02:16:30;;;;;;;15.55;14.45;;;;;;;5.42;68.04;102854.63;5073872;28;20031;-77
2023/01/28 02:18:56;;;;;;;17.27;15.88;;;;;;;5.41;67.90;102852.94;5073661;28;20032;-77
2023/01/28 02:21:21;;;;;;;16.02;14.85;;;;;;;5.41;68.27;102858.28;5073197;28;20028;-77
2023/01/28 02:24:00;;;;;;;16.63;15.43;;;;;;;5.42;67.75;102851.94;5073329;28;20021;-77
2023/01/28 02:26:46;;;;;;;16.38;15.10;;;;;;;5.40;68.23;102854.78;5072476;28;20082;-76
2023/01/28 02:29:37;;;;;;;11.98;11.20;;;;;;;5.40;68.22;102859.28;5073512;28;20086;-77
2023/01/28 02:32:23;;;;;;;14.73;13.82;;;;;;;5.39;68.11;102850.41;5072842;28;20021;-77
2023/01/28 02:35:14;;;;;;;16.17;14.85;;;;;;;5.39;68.01;102849.56;5073569;28;20055;-77
2023/01/28 02:37:49;;;;;;;15.32;14.13;;;;;;;5.38;68.00;102842.53;5073358;28;20020;-75
2023/01/28 02:40:21;;;;;;;15.63;14.63;;;;;;;5.38;68.23;102843.34;5073551;28;20146;-77
2023/01/28 02:42:47;;;;;;;18.45;16.65;;;;;;;5.38;68.22;102850.56;5072241;28;20024;-77
2023/01/28 02:45:20;;;;;;;14.57;13.63;;;;;;;5.38;67.98;102845.19;5073465;28;20540;-77
2023/01/28 02:47:57;;;;;;;15.30;14.15;;;;;;;5.39;68.12;102849.56;5073440;28;20024;-77
2023/01/28 02:50:30;;;;;;;16.17;14.85;;;;;;;5.38;68.17;102855.91;5073584;28;20046;-77
2023/01/28 02:56:19;;;;;;;18.65;17.13;;;;;;;5.37;68.19;102856.94;5073683;28;20039;-77
2023/01/28 02:59:29;;;;;;;17.85;16.48;;;;;;;5.36;68.12;102864.09;5073329;28;20025;-76
2023/01/28 03:01:49;;;;;;;16.52;15.23;;;;;;;5.36;68.15;102858.75;5072790;28;20036;-77
2023/01/28 03:04:25;;;;;;;16.65;15.35;;;;;;;5.35;68.16;102857.09;5071575;28;20506;-78
2023/01/28 03:06:57;;;;;;;16.40;15.02;;;;;;;5.35;67.95;102856.25;5074442;28;20479;-77
2023/01/28 03:09:25;;;;;;;14.57;13.50;;;;;;;5.34;68.07;102854.53;5077643;28;20056;-77
2023/01/28 03:38:21;;;;;;;13.88;12.90;;;;;;;5.28;68.05;102869.41;5076942;28;20059;-77
2023/01/28 03:41:04;;;;;;;;;;;;;;;5.29;68.41;102862.22;5076775;28;20024;-77
2023/01/28 03:43:30;;;;;;;14.10;13.02;;;;;;;5.27;68.37;102864.22;5076266;28;19955;-77
2023/01/28 03:45:56;;;;;;;15.82;14.55;;;;;;;5.25;68.37;102866.22;5074959;28;20480;-76
2023/01/28 03:48:26;;;;;;;15.68;14.35;;;;;;;5.27;68.32;102869.59;5076162;28;20119;-77
2023/01/28 03:50:53;;;;;;;15.90;14.60;;;;;;;5.26;68.14;102876.75;5076182;28;20029;-76
2023/01/28 03:53:19;;;;;;;15.57;14.48;;;;;;;5.27;68.66;102878.47;5076103;28;20027;-77
2023/01/28 03:55:46;;;;;;;15.48;14.07;;;;;;;5.27;68.31;102880.31;5076585;28;20032;-77
2023/01/28 03:58:13;;;;;;;14.10;13.00;;;;;;;5.28;68.63;102887.34;5074675;28;20082;-77
2023/01/28 04:00:42;;;;;;;16.70;15.40;;;;;;;5.28;68.38;102884.66;5075976;28;20021;-76
2023/01/28 04:03:14;;;;;;;;;;;;;;;5.27;68.48;102883.81;5076346;28;20060;-77
2023/01/28 04:05:42;;;;;;;12.68;11.77;;;;;;;5.26;68.34;102883.97;5074924;28;20248;-77
2023/01/28 04:08:08;;;;;;;18.38;16.70;;;;;;;5.26;68.56;102887.47;5075629;28;20083;-77
2023/01/28 04:10:33;;;;;;;16.38;14.80;;;;;;;5.25;68.42;102893.84;5075521;28;20104;-77
2023/01/28 04:12:59;;;;;;;15.90;14.40;;;;;;;5.26;68.28;102890.16;5074487;28;20384;-75
2023/01/28 04:15:24;;;;;;;16.73;15.40;;;;;;;5.26;68.39;102892.00;5057685;28;20098;-76
2023/01/28 04:17:49;;;;;;;15.55;14.45;;;;;;;5.25;68.34;102893.84;5056416;28;20033;-76
2023/01/28 04:20:16;;;;;;;14.95;13.85;;;;;;;5.26;68.47;102898.19;5075695;28;20082;-76
2023/01/28 04:22:42;;;;;;;14.93;13.90;;;;;;;5.26;68.51;102892.00;5075313;28;20028;-76
2023/01/28 04:25:08;;;;;;;16.48;15.20;;;;;;;5.26;68.29;102897.34;5075432;28;20055;-77
2023/01/28 04:27:33;;;;;;;14.73;13.70;;;;;;;5.26;68.38;102892.84;5075437;28;20049;-76
2023/01/28 04:29:58;;;;;;;16.05;14.57;;;;;;;5.25;68.46;102885.81;5075415;28;20041;-77
2023/01/28 04:32:24;;;;;;;16.95;15.65;;;;;;;5.25;68.65;102887.66;5075426;28;20472;-77
2023/01/28 04:34:49;;;;;;;15.40;14.20;;;;;;;5.25;68.48;102893.00;5057252;28;20120;-76
2023/01/28 04:37:14;;;;;;;18.30;16.67;;;;;;;5.25;68.60;102888.47;5074389;28;20068;-76
2023/01/28 04:39:40;;;;;;;15.95;14.85;;;;;;;5.26;68.57;102883.97;5057065;28;20021;-77
2023/01/28 04:42:05;;;;;;;19.30;17.45;;;;;;;5.25;68.66;102883.13;5075135;28;20500;-77
2023/01/28 04:44:30;;;;;;;14.30;13.30;;;;;;;5.24;68.56;102886.81;5075210;28;20025;-77
2023/01/28 04:46:56;;;;;;;15.75;14.55;;;;;;;5.24;68.57;102897.53;5075093;28;20043;-76
2023/01/28 04:49:21;;;;;;;15.77;14.57;;;;;;;5.24;68.63;102896.66;5074251;28;20083;-77
2023/01/28 04:51:47;;;;;;;15.98;14.85;;;;;;;5.24;68.68;102896.66;5073377;28;20476;-77
2023/01/28 04:54:12;;;;;;;16.92;15.60;;;;;;;5.23;68.53;102893.16;5074911;28;20116;-76
2023/01/28 04:56:37;;;;;;;14.57;13.57;;;;;;;5.24;68.48;102891.31;5074062;28;20032;-77
2023/01/28 04:59:03;;;;;;;13.68;12.75;;;;;;;5.24;68.61;102885.94;5074410;28;20032;-76
2023/01/28 05:01:29;;;;;;;16.05;14.52;;;;;;;5.23;68.77;102893.16;5074765;28;20475;-76
2023/01/28 05:03:54;;;;;;;15.27;14.07;;;;;;;5.24;68.58;102888.63;5057694;28;20028;-77
2023/01/28 05:06:19;;;;;;;15.85;14.63;;;;;;;5.23;68.48;102895.84;5074923;28;20492;-76
2023/01/28 05:08:45;;;;;;;16.00;14.65;;;;;;;5.22;68.66;102899.53;5073008;28;20076;-77
2023/01/28 05:11:12;;;;;;;16.75;15.27;;;;;;;5.22;68.53;102902.19;5074734;28;20024;-77
2023/01/28 05:13:37;;;;;;;15.60;14.43;;;;;;;5.21;68.69;102895.97;5074639;28;20029;-77
2023/01/28 05:16:03;;;;;;;15.52;14.00;;;;;;;5.20;68.46;102891.63;5056562;28;20388;-75
2023/01/28 05:18:28;;;;;;;13.80;12.60;;;;;;;5.21;68.61;102900.50;5074176;28;20515;-76
2023/01/28 05:20:54;;;;;;;14.38;13.13;;;;;;;5.21;68.33;102911.22;5074359;28;20032;-76
2023/01/28 05:23:19;;;;;;;17.45;15.82;;;;;;;5.20;68.67;102907.69;5074539;28;20056;-76
2023/01/28 05:25:44;;;;;;;16.65;15.27;;;;;;;5.21;68.44;102897.81;5074567;28;20377;-77
2023/01/28 05:28:10;;;;;;;18.27;16.75;;;;;;;5.20;68.46;102891.63;5073266;28;20036;-77
2023/01/28 05:30:37;;;;;;;13.63;12.63;;;;;;;5.20;68.54;102896.16;5072554;28;20036;-77
2023/01/28 05:33:03;;;;;;;17.90;16.20;;;;;;;5.19;68.32;102895.31;5074246;28;20082;-77
2023/01/28 05:35:28;;;;;;;15.02;14.00;;;;;;;5.19;68.70;102887.28;5072807;28;20476;-77
2023/01/28 05:37:53;;;;;;;15.48;13.98;;;;;;;5.19;68.47;102883.72;5073837;28;20033;-77
2023/01/28 05:40:19;;;;;;;17.45;15.70;;;;;;;5.18;68.40;102890.94;5072664;28;20480;-76
2023/01/28 05:42:44;;;;;;;15.35;14.15;;;;;;;5.18;68.60;102890.09;5055759;28;20120;-76
2023/01/28 05:45:10;;;;;;;15.55;14.48;;;;;;;5.17;68.49;102888.44;5073937;28;20046;-76
2023/01/28 05:47:36;;;;;;;14.52;13.55;;;;;;;5.16;68.53;102882.19;5072973;28;20028;-77
2023/01/28 05:50:01;;;;;;;14.13;13.20;;;;;;;5.15;68.45;102891.25;5074167;28;20116;-76
2023/01/28 05:52:27;;;;;;;16.38;15.00;;;;;;;5.16;68.60;102898.28;5073979;28;20051;-77
2023/01/28 05:54:52;;;;;;;15.18;13.90;;;;;;;5.16;68.70;102897.44;5073788;28;20055;-76
2023/01/28 05:57:17;;;;;;;18.52;16.95;;;;;;;5.16;68.35;102910.84;5073758;28;20033;-76
2023/01/28 05:59:43;;;;;;;14.05;12.98;;;;;;;5.15;68.57;102906.47;5073992;28;20376;-77
2023/01/28 06:02:08;;;;;;;15.77;14.38;;;;;;;5.14;68.26;102905.66;5073666;28;20031;-76
2023/01/28 06:04:33;;;;;;;15.27;14.05;;;;;;;5.14;68.22;102905.66;5073947;28;20478;-77
2023/01/28 06:06:59;;;;;;;16.80;15.48;;;;;;;5.14;68.36;102902.97;5072533;28;20035;-77
2023/01/28 06:09:24;;;;;;;17.85;16.05;;;;;;;5.14;68.33;102902.09;5074110;28;20059;-77
2023/01/28 06:11:50;;;;;;;15.85;14.50;;;;;;;5.14;68.36;102910.13;5072540;28;20154;-76
2023/01/28 06:14:15;;;;;;;17.17;15.50;;;;;;;5.13;68.37;102898.59;5055475;28;20032;-76
2023/01/28 06:16:40;;;;;;;17.10;15.63;;;;;;;5.12;68.29;102894.25;5072376;28;20029;-77
2023/01/28 06:19:06;;;;;;;16.75;15.38;;;;;;;5.13;68.59;102903.13;5073407;28;20123;-77
2023/01/28 06:21:31;;;;;;;15.43;14.23;;;;;;;5.12;68.28;102899.59;5072497;28;20153;-77
2023/01/28 06:23:56;;;;;;;13.50;12.38;;;;;;;5.12;68.20;102898.75;5072375;28;20037;-77
2023/01/28 06:26:22;;;;;;;19.70;18.10;;;;;;;5.11;68.22;102900.56;5073878;28;20036;-76
2023/01/28 06:28:47;;;;;;;14.48;13.30;;;;;;;5.11;68.45;102891.69;5072116;28;20032;-77
2023/01/28 06:31:13;;;;;;;17.48;16.15;;;;;;;5.12;68.06;102907.63;5073619;28;20043;-75
2023/01/28 06:33:38;;;;;;;15.20;13.93;;;;;;;5.11;68.23;102908.59;5073383;28;20028;-77
2023/01/28 06:36:05;;;;;;;14.43;13.35;;;;;;;5.11;68.30;102900.56;5073302;28;20119;-78
2023/01/28 06:38:31;;;;;;;17.10;15.70;;;;;;;5.10;68.13;102914.13;5073556;28;20464;-77
2023/01/28 06:40:57;;;;;;;14.88;13.77;;;;;;;5.10;68.16;102903.44;5072818;28;20028;-77
2023/01/28 06:43:26;;;;;;;18.63;16.80;;;;;;;5.08;68.23;102902.72;5076209;28;20054;-77
2023/01/28 06:45:53;;;;;;;16.65;15.38;;;;;;;5.08;68.29;102908.91;5077650;28;20467;-77
2023/01/28 06:48:19;;;;;;;17.45;16.02;;;;;;;5.08;68.21;102913.44;5077479;28;20031;-77
2023/01/28 06:50:46;;;;;;;16.23;14.93;;;;;;;5.08;68.08;102913.44;5077069;28;20029;-77
2023/01/28 06:53:12;;;;;;;15.80;14.52;;;;;;;5.07;68.28;102919.81;5076194;28;20021;-77
2023/01/28 06:55:37;;;;;;;17.83;16.33;;;;;;;5.06;68.37;102924.31;5075792;28;20025;-77
2023/01/28 06:58:03;;;;;;;15.77;14.48;;;;;;;5.06;68.45;102920.78;5059088;28;20546;-77
2023/01/28 07:00:28;;;;;;;17.17;15.85;;;;;;;5.06;68.32;102915.44;5076107;28;20341;-77
2023/01/28 07:02:56;;;;;;;16.33;15.13;;;;;;;5.06;68.28;102918.09;5077056;28;20029;-77
2023/01/28 07:05:23;;;;;;;15.00;13.70;;;;;;;5.06;68.38;102915.44;5075629;28;20032;-77
2023/01/28 07:07:48;;;;;;;14.57;13.63;;;;;;;5.05;68.11;102911.91;5076852;28;20053;-77
2023/01/28 07:10:14;;;;;;;16.10;14.90;;;;;;;5.06;68.44;102923.47;5076553;28;20023;-77
2023/01/28 07:12:42;;;;;;;18.25;16.75;;;;;;;5.04;68.44;102920.97;5076962;28;20036;-77
2023/01/28 07:15:09;;;;;;;15.63;14.37;;;;;;;5.04;68.19;102923.63;5076785;28;20036;-77
2023/01/28 07:17:37;;;;;;;17.55;16.17;;;;;;;5.04;68.36;102937.03;5075542;28;20318;-77
2023/01/28 07:20:04;;;;;;;16.67;15.32;;;;;;;5.04;68.36;102947.75;5076582;28;20025;-77
2023/01/28 07:22:29;;;;;;;17.85;16.13;;;;;;;5.04;68.45;102941.53;5076739;28;20103;-77
2023/01/28 07:24:54;;;;;;;14.30;13.25;;;;;;;5.03;68.30;102939.84;5076834;28;20139;-77
2023/01/28 07:27:20;;;;;;;17.02;15.68;;;;;;;5.03;68.59;102950.56;5076552;28;20028;-76
2023/01/28 07:29:45;;;;;;;14.60;13.60;;;;;;;5.03;68.36;102945.19;5075239;28;20119;-77
2023/01/28 07:32:10;;;;;;;16.27;15.00;;;;;;;5.03;68.40;102956.75;5076371;28;20032;-78
2023/01/28 07:34:38;;;;;;;16.80;15.20;;;;;;;5.02;68.35;102949.72;5076338;28;20456;-77
2023/01/28 07:37:05;;;;;;;15.27;14.27;;;;;;;5.02;68.34;102947.03;5058632;28;20111;-78
2023/01/28 07:39:31;;;;;;;18.98;17.10;;;;;;;5.02;68.48;102957.75;5074916;28;20060;-78
2023/01/28 07:41:56;;;;;;;15.07;13.98;;;;;;;5.01;68.18;102956.06;5076215;28;20060;-77
2023/01/28 07:44:21;;;;;;;15.15;13.85;;;;;;;5.01;68.54;102963.25;5075003;28;20039;-76
2023/01/28 07:46:47;;;;;;;17.17;16.05;;;;;;;5.01;68.33;102957.91;5076179;28;20460;-77
2023/01/28 07:49:12;;;;;;;16.13;14.77;;;;;;;5.02;68.47;102963.13;5076189;28;20040;-77
2023/01/28 07:51:37;;;;;;;17.55;16.13;;;;;;;5.01;68.41;102961.41;5075487;28;20104;-77
2023/01/28 07:54:03;;;;;;;15.35;14.27;;;;;;;5.01;68.12;102965.94;5076066;28;20497;-77
2023/01/28 07:56:30;;;;;;;17.17;15.88;;;;;;;5.00;68.44;102951.72;5074819;28;20445;-77
2023/01/28 07:58:55;;;;;;;15.77;14.48;;;;;;;4.99;68.31;102958.06;5075929;28;20024;-79
2023/01/28 08:01:21;;;;;;;15.55;14.35;;;;;;;4.98;68.61;102957.19;5075839;28;20028;-78
2023/01/28 08:03:46;;;;;;;16.10;14.98;;;;;;;4.99;68.38;102960.75;5075406;28;20052;-78
2023/01/28 08:06:11;;;;;;;15.75;14.45;;;;;;;4.97;68.53;102947.50;5076122;28;20037;-77
2023/01/28 08:08:37;;;;;;;18.23;16.70;;;;;;;4.97;68.20;102965.41;5072202;28;20045;-79
2023/01/28 08:11:09;;;;;;;15.18;14.07;;;;;;;4.97;68.39;102970.78;5075786;28;20349;-78
2023/01/28 08:13:35;;;;;;;16.90;15.35;;;;;;;4.97;67.92;102979.63;5075845;28;20017;-78
2023/01/28 08:16:01;;;;;;;17.70;16.02;;;;;;;4.97;68.14;102984.16;5074731;28;20491;-79
2023/01/28 08:18:26;;;;;;;18.10;16.50;;;;;;;4.97;68.20;102992.19;5074603;28;20105;-78
2023/01/28 08:20:56;;;;;;;15.88;14.40;;;;;;;4.97;68.04;102981.47;5075413;28;20033;-78
2023/01/28 08:23:22;;;;;;;17.88;16.38;;;;;;;4.97;68.15;102989.50;5075216;28;20024;-78
2023/01/28 08:25:48;;;;;;;14.93;13.63;;;;;;;4.95;68.24;102997.69;5076209;28;20141;-78
2023/01/28 08:28:15;;;;;;;16.73;15.32;;;;;;;4.95;67.95;103005.72;5075392;28;20032;-78
2023/01/28 08:30:41;;;;;;;15.52;14.30;;;;;;;4.95;68.13;102999.53;5075125;28;20024;-78
2023/01/28 08:33:10;;;;;;;16.30;15.05;;;;;;;4.95;68.36;102996.84;5074189;28;20062;-78
2023/01/28 08:35:36;;;;;;;15.77;14.35;;;;;;;4.94;68.13;102997.84;5075595;28;20033;-78
2023/01/28 08:38:03;;;;;;;16.77;15.40;;;;;;;4.95;68.22;103005.72;5075602;28;20036;-77
2023/01/28 08:40:28;;;;;;;14.35;13.25;;;;;;;4.95;68.17;103007.56;5075543;28;20056;-77
2023/01/28 08:42:55;;;;;;;17.25;15.95;;;;;;;4.94;68.34;103009.41;5074709;28;20067;-77
2023/01/28 08:45:24;;;;;;;16.65;14.68;;;;;;;4.95;68.21;103012.91;5075036;28;20028;-77
2023/01/28 08:47:59;;;;;;;;;;;;;;;4.94;67.84;103008.56;5074953;28;20514;-78
2023/01/28 08:50:27;;;;;;;15.07;13.65;;;;;;;4.93;67.96;103007.69;5073654;28;19914;-77
2023/01/28 08:52:57;;;;;;;17.00;15.57;;;;;;;4.91;68.12;103008.84;5075386;28;20028;-78
2023/01/28 08:55:24;;;;;;;17.35;15.80;;;;;;;4.92;68.34;103013.22;5074788;28;20399;-78
2023/01/28 08:57:50;;;;;;;16.52;15.10;;;;;;;4.92;68.03;103015.91;5075253;28;20036;-77
2023/01/28 09:00:16;;;;;;;15.98;14.77;;;;;;;4.91;67.80;103017.75;5074758;28;20029;-77
2023/01/28 09:02:42;;;;;;;19.80;17.73;;;;;;;4.91;68.01;103016.88;5074621;28;20032;-78
2023/01/28 09:05:08;;;;;;;15.27;13.93;;;;;;;4.90;67.68;103016.03;5074012;28;20058;-78
2023/01/28 09:07:34;;;;;;;15.77;14.60;;;;;;;4.90;67.98;103024.06;5073438;28;20032;-76
2023/01/28 09:09:59;;;;;;;16.98;15.35;;;;;;;4.90;67.90;103031.28;5074173;28;20028;-78
2023/01/28 09:12:26;;;;;;;16.25;14.85;;;;;;;4.91;68.34;103032.94;5074580;28;20392;-78
2023/01/28 09:14:51;;;;;;;17.55;16.02;;;;;;;4.90;68.15;103032.09;5074536;28;20021;-77
2023/01/28 09:17:17;;;;;;;12.80;11.95;;;;;;;4.90;68.03;103024.06;5074495;28;20040;-77
2023/01/28 09:19:42;;;;;;;19.83;17.58;;;;;;;4.89;68.08;103017.03;5073375;28;20187;-77
2023/01/28 09:22:08;;;;;;;14.13;13.30;;;;;;;4.89;67.85;103018.84;5073283;28;20058;-77
2023/01/28 09:24:33;;;;;;;12.90;12.10;;;;;;;4.89;67.98;103032.25;5073464;28;20064;-79
2023/01/28 09:26:59;;;;;;;16.50;15.13;;;;;;;4.90;68.02;103039.31;5074735;28;20461;-77
2023/01/28 09:29:24;;;;;;;16.40;15.13;;;;;;;4.90;67.94;103047.34;5074272;28;20039;-78
2023/01/28 09:31:49;;;;;;;18.95;16.95;;;;;;;4.88;67.97;103055.50;5073938;28;20489;-77
2023/01/28 09:34:15;;;;;;;14.75;13.63;;;;;;;4.89;68.00;103064.38;5072994;28;20024;-79
2023/01/28 09:36:40;;;;;;;16.42;15.13;;;;;;;4.89;67.87;103070.59;5074450;28;20482;-76
2023/01/28 09:39:07;;;;;;;17.08;15.68;;;;;;;4.89;67.98;103065.25;5073704;28;20052;-77
2023/01/28 09:42:08;;;;;;;17.23;15.82;;;;;;;4.88;68.07;103066.22;5072902;28;20028;-76
2023/01/28 09:44:58;;;;;;;15.27;14.05;;;;;;;4.88;68.17;103073.41;5015305;28;20056;-77
2023/01/28 09:47:37;;;;;;;15.98;14.65;;;;;;;4.87;67.80;103069.91;5070005;28;20503;-77
2023/01/28 09:50:07;;;;;;;16.50;15.02;;;;;;;4.87;68.16;103072.59;5073879;28;20104;-77
2023/01/28 09:52:39;;;;;;;16.13;14.93;;;;;;;4.86;68.16;103062.84;5073415;28;20038;-76
2023/01/28 09:55:09;;;;;;;13.23;12.18;;;;;;;4.86;67.86;103070.03;5072922;28;20056;-76
2023/01/28 09:57:48;;;;;;;15.77;14.60;;;;;;;4.86;67.58;103073.56;5074061;28;20033;-77
2023/01/28 10:00:17;;;;;;;18.75;17.13;;;;;;;4.86;67.49;103070.88;5074373;28;20028;-77
2023/01/28 10:03:22;;;;;;;16.67;15.05;;;;;;;4.85;67.71;103073.72;5073026;28;20361;-74
2023/01/28 10:05:56;;;;;;;20.35;18.45;;;;;;;4.85;67.61;103073.72;5071149;28;20366;-76
2023/01/28 10:08:40;;;;;;;14.68;13.35;;;;;;;4.86;67.47;103080.75;5073543;28;20473;-77
2023/01/28 10:11:24;;;;;;;14.95;13.85;;;;;;;4.84;67.50;103075.56;5073492;28;20480;-76
2023/01/28 10:14:01;;;;;;;16.45;15.18;;;;;;;4.84;67.68;103082.72;5073952;28;20032;-78
2023/01/28 10:16:54;;;;;;;11.98;11.27;;;;;;;4.83;67.65;103081.06;5073193;28;20051;-77
2023/01/28 10:19:27;;;;;;;13.95;12.70;;;;;;;4.82;67.57;103076.69;5065686;28;20400;-75
2023/01/28 10:21:56;;;;;;;16.23;14.77;;;;;;;4.81;67.41;103083.03;5072655;28;20025;-75
2023/01/28 10:24:28;;;;;;;19.50;16.25;;;;;;;4.81;67.71;103080.34;5072549;28;20055;-76
2023/01/28 10:26:53;;;;;;;31.63;16.80;;;;;;;4.80;67.56;103090.22;5073386;28;20043;-77
2023/01/28 10:29:24;;;;;;;14.52;13.52;;;;;;;4.78;67.51;103094.88;5073027;28;20028;-76
2023/01/28 10:31:55;;;;;;;17.77;16.08;;;;;;;4.80;67.49;103084.88;5073238;28;20032;-76
2023/01/28 10:34:22;;;;;;;16.77;15.48;;;;;;;4.80;67.55;103076.84;5073271;28;20479;-76
2023/01/28 10:36:48;;;;;;;15.55;14.50;;;;;;;4.79;67.51;103085.88;5073200;28;20064;-75
2023/01/28 10:39:20;;;;;;;15.32;14.23;;;;;;;4.80;67.28;103087.53;5073141;28;20545;-76
2023/01/28 10:41:45;;;;;;;14.73;13.48;;;;;;;4.78;67.34;103082.31;5073851;28;20031;-75
2023/01/28 10:44:34;;;;;;;16.92;15.38;;;;;;;4.78;67.37;103086.84;5073337;28;20024;-76
2023/01/28 10:47:09;;;;;;;14.93;13.82;;;;;;;4.77;67.23;103077.97;5073073;28;20020;-78
2023/01/28 10:49:41;;;;;;;14.63;13.38;;;;;;;4.77;67.31;103086.00;5073237;28;20032;-78
2023/01/28 10:52:11;;;;;;;18.83;17.05;;;;;;;4.77;67.49;103080.66;5073955;28;20043;-77
2023/01/28 10:54:36;;;;;;;13.85;12.93;;;;;;;4.78;67.24;103068.94;5073874;28;20055;-77
2023/01/28 10:57:06;;;;;;;19.38;17.52;;;;;;;4.79;67.30;103056.41;5071837;28;20476;-76
2023/01/28 10:59:35;;;;;;;17.00;15.35;;;;;;;4.80;67.35;103050.06;5073163;28;20033;-77
2023/01/28 11:02:18;;;;;;;;;;;;;;;4.80;67.39;103049.22;5073828;28;20025;-78
2023/01/28 11:04:43;;;;;;;18.05;16.40;;;;;;;4.80;67.19;103049.22;5071569;28;19908;-77
2023/01/28 11:07:18;;;;;;;15.48;14.18;;;;;;;4.78;66.02;103057.38;5071885;28;20089;-76
2023/01/28 11:09:49;;;;;;;16.17;14.93;;;;;;;4.76;65.51;103049.53;5070914;28;20062;-77
2023/01/28 11:12:27;;;;;;;18.48;17.05;;;;;;;4.75;65.82;103042.47;5072248;28;20028;-79
2023/01/28 11:14:55;;;;;;;17.90;16.15;;;;;;;4.75;66.07;103044.31;5073116;28;20028;-76
2023/01/28 11:17:24;;;;;;;16.25;14.82;;;;;;;4.74;65.73;103048.81;5073583;28;20050;-77
2023/01/28 11:19:52;;;;;;;16.05;14.70;;;;;;;4.73;65.70;103049.78;5071540;28;20032;-77
2023/01/28 11:22:32;;;;;;;19.47;17.40;;;;;;;4.74;65.62;103039.97;5072926;28;20036;-77
2023/01/28 11:25:00;;;;;;;18.35;16.73;;;;;;;4.74;64.79;103029.25;5072881;28;20104;-77
2023/01/28 11:27:31;;;;;;;15.13;13.93;;;;;;;4.73;65.17;103024.88;5074603;28;20502;-77
2023/01/28 11:30:02;;;;;;;17.38;15.63;;;;;;;4.73;65.39;103024.88;5076532;28;20036;-79
2023/01/28 11:32:28;;;;;;;20.60;18.10;;;;;;;4.73;65.11;103036.41;5077148;28;20024;-77
2023/01/28 11:34:59;;;;;;;12.60;11.73;;;;;;;4.72;65.25;103024.03;5075818;28;20063;-77
2023/01/28 11:37:26;;;;;;;18.42;16.83;;;;;;;4.72;65.21;103010.63;5076587;28;20028;-77
2023/01/28 11:40:21;;;;;;;16.75;15.45;;;;;;;4.72;65.18;103018.66;5075323;28;20028;-77
2023/01/28 11:42:47;;;;;;;13.85;12.90;;;;;;;4.73;64.89;103006.97;5067072;28;20040;-77
2023/01/28 11:45:26;;;;;;;12.52;11.80;;;;;;;4.71;65.15;103000.94;5075562;28;20159;-76
2023/01/28 11:48:14;;;;;;;18.38;16.88;;;;;;;4.72;63.63;102999.94;5076660;28;20472;-78
2023/01/28 11:50:56;;;;;;;13.20;12.40;;;;;;;4.72;63.00;102983.03;5076418;28;20040;-76
2023/01/28 11:53:39;;;;;;;15.98;14.65;;;;;;;4.71;63.29;102965.25;5076250;28;20258;-76
2023/01/28 11:56:38;;;;;;;17.30;15.73;;;;;;;4.70;63.00;102947.53;5076104;28;20111;-76